Главная страница
METAR-TAF:

METAR-TAF

Аэропорты :

New Castle, Пенсильвания, США

широта: 41-01-31N, долгота: 080-24-48W, высота над уровнем моря: 326 м

Текущие метеонаблюдения

Эта сводка был подготовлена 14 минут назад, в 10:56 UTC
Штиль
Температура 12°C
Влажность 94%
Давление 1016 hPa
Видимость: 8.0 км
ясное небо
дымка

METAR: KUCP 241056Z AUTO 00000KT 5SM BR CLR 12/11 A3001 RMK AO2 SLP175 T01170111

Время: 07:10 (11:10 UTC)


TAF: отсутствует

Метеонаблюдения и прогнозы для более 4000 аэропортов (сводки METAR и TAF).

Имеющиеся станции представлены на карте желтыми и красными точками.

Чтобы увидеть название станции, наведите на нее мышь.

Затем щелкните, чтобы увидеть метеонаблюдения и метеопрогнозы.

Управление картой: чтобы увеличить масштаб, щелкните зеленые кнопки с черным крестиком; чтобы уменьшить масштаб, щелкните зеленую кнопку с тире; для просмотра соседних карт щелкайте зеленые стрелки.


METAR-TAF: